createdAt,value
2019-03-25T00:01:46.464Z,22.80
2019-03-25T00:04:16.301Z,28.10
2019-03-25T00:06:48.007Z,22.27
2019-03-25T00:09:17.757Z,24.50
2019-03-25T00:11:47.707Z,22.57
2019-03-25T00:14:19.325Z,21.87
2019-03-25T00:16:49.762Z,26.33
2019-03-25T00:19:19.522Z,25.03
2019-03-25T00:21:49.119Z,23.40
2019-03-25T00:24:23.190Z,26.77
2019-03-25T00:26:55.893Z,25.47
2019-03-25T00:29:25.458Z,23.97
2019-03-25T00:31:58.959Z,24.50
2019-03-25T00:34:29.353Z,27.53
2019-03-25T00:36:59.021Z,24.17
2019-03-25T00:39:28.682Z,25.17
2019-03-25T00:41:58.301Z,29.33
2019-03-25T00:44:27.986Z,24.10
2019-03-25T00:46:57.599Z,27.73
2019-03-25T00:49:27.769Z,26.57
2019-03-25T00:52:01.493Z,26.43
2019-03-25T00:54:31.134Z,28.10
2019-03-25T00:57:01.602Z,25.03
2019-03-25T00:59:33.070Z,27.07
2019-03-25T01:02:04.534Z,27.90
2019-03-25T01:04:37.532Z,29.63
2019-03-25T01:07:07.323Z,25.83
2019-03-25T01:09:36.987Z,26.03
2019-03-25T01:12:06.722Z,28.37
2019-03-25T01:14:39.134Z,24.17
2019-03-25T01:17:08.879Z,24.73
2019-03-25T01:19:41.047Z,25.57
2019-03-25T01:22:10.674Z,22.33
2019-03-25T01:24:40.412Z,23.73
2019-03-25T01:27:11.396Z,26.63
2019-03-25T01:29:41.149Z,23.93
2019-03-25T01:32:10.825Z,21.53
2019-03-25T01:34:41.587Z,19.37
2019-03-25T01:37:11.208Z,16.77
2019-03-25T01:39:40.931Z,21.20
2019-03-25T01:42:11.566Z,20.43
2019-03-25T01:44:42.601Z,24.13
2019-03-25T01:47:12.277Z,23.40
2019-03-25T01:49:41.976Z,21.83
2019-03-25T01:52:11.591Z,24.77
2019-03-25T01:54:41.278Z,22.67
2019-03-25T01:57:10.900Z,21.73
2019-03-25T01:59:40.533Z,23.17
2019-03-25T02:02:10.127Z,19.17
2019-03-25T02:04:39.875Z,22.00
2019-03-25T02:07:09.464Z,20.47
2019-03-25T02:09:39.043Z,19.87
2019-03-25T02:12:10.324Z,19.67
2019-03-25T02:14:41.092Z,22.67
2019-03-25T02:17:11.135Z,19.07
2019-03-25T02:19:40.787Z,24.80
2019-03-25T02:22:10.478Z,21.93
2019-03-25T02:24:40.050Z,26.00
2019-03-25T02:27:09.722Z,21.67
2019-03-25T02:29:40.869Z,20.77
2019-03-25T02:32:10.505Z,22.37
2019-03-25T02:34:40.099Z,23.43
2019-03-25T02:37:09.718Z,22.20
2019-03-25T02:39:39.390Z,21.47
2019-03-25T02:42:12.145Z,23.77
2019-03-25T02:44:41.784Z,19.50
2019-03-25T02:47:12.396Z,19.23
2019-03-25T02:49:41.994Z,20.27
2019-03-25T02:52:11.777Z,20.70
2019-03-25T02:54:43.590Z,24.80
2019-03-25T02:57:13.239Z,19.60
2019-03-25T02:59:45.097Z,20.77
2019-03-25T03:02:17.119Z,21.00
2019-03-25T03:04:47.850Z,20.13
2019-03-25T03:07:17.533Z,20.70
2019-03-25T03:09:47.193Z,20.07
2019-03-25T03:12:16.824Z,19.40
2019-03-25T03:14:46.485Z,16.43
2019-03-25T03:17:17.782Z,20.37
2019-03-25T03:19:47.402Z,21.90
2019-03-25T03:22:17.251Z,20.23
2019-03-25T03:24:46.917Z,18.07
2019-03-25T03:27:16.572Z,21.07
2019-03-25T03:29:46.159Z,20.63
2019-03-25T03:32:17.989Z,22.13
2019-03-25T03:34:47.618Z,20.23
2019-03-25T03:37:17.337Z,18.37
2019-03-25T03:39:47.007Z,18.87
2019-03-25T03:42:16.702Z,22.27
2019-03-25T03:44:48.235Z,16.67
2019-03-25T03:47:17.895Z,16.23
2019-03-25T03:49:47.555Z,16.00
2019-03-25T03:52:17.146Z,15.73
2019-03-25T03:54:47.188Z,18.77
2019-03-25T03:57:16.852Z,21.03
2019-03-25T03:59:48.787Z,19.50
2019-03-25T04:02:18.410Z,18.83
2019-03-25T04:04:48.053Z,21.73
2019-03-25T04:07:17.729Z,16.23
2019-03-25T04:09:47.394Z,19.07
2019-03-25T04:12:17.070Z,18.57
2019-03-25T04:14:48.530Z,19.63
2019-03-25T04:17:18.244Z,21.13
2019-03-25T04:19:47.851Z,18.50
2019-03-25T04:22:17.501Z,17.20
2019-03-25T04:24:47.196Z,21.97
2019-03-25T04:27:16.839Z,16.87
2019-03-25T04:29:46.493Z,18.63
2019-03-25T04:32:16.196Z,19.00
2019-03-25T04:34:45.805Z,14.80
2019-03-25T04:37:15.418Z,18.63
2019-03-25T04:39:45.023Z,18.20
2019-03-25T04:42:14.661Z,17.30
2019-03-25T04:44:44.275Z,20.27
2019-03-25T04:47:14.020Z,19.47
2019-03-25T04:49:43.585Z,17.07
2019-03-25T04:52:13.282Z,18.20
2019-03-25T04:54:42.914Z,16.53
2019-03-25T04:57:12.527Z,16.77
2019-03-25T04:59:42.190Z,19.57
2019-03-25T05:02:11.890Z,17.03
2019-03-25T05:04:41.572Z,17.90
2019-03-25T05:07:11.235Z,17.03
2019-03-25T05:09:40.866Z,17.93
2019-03-25T05:12:10.508Z,18.13
2019-03-25T05:14:40.147Z,18.93
2019-03-25T05:17:12.773Z,18.23
2019-03-25T05:19:44.559Z,18.87
2019-03-25T05:22:14.177Z,17.37
2019-03-25T05:24:44.406Z,19.60
2019-03-25T05:27:14.153Z,18.03
2019-03-25T05:29:45.084Z,18.30
2019-03-25T05:32:16.993Z,18.97
2019-03-25T05:34:48.714Z,15.83
2019-03-25T05:37:18.407Z,18.40
2019-03-25T05:39:48.007Z,17.10
2019-03-25T05:42:17.705Z,22.07
2019-03-25T05:44:47.300Z,14.50
2019-03-25T05:47:17.049Z,19.33
2019-03-25T05:49:46.690Z,26.23
2019-03-25T05:52:16.791Z,35.00
2019-03-25T05:54:46.536Z,31.80
2019-03-25T05:57:16.208Z,29.80
2019-03-25T05:59:45.952Z,27.00
2019-03-25T06:02:15.648Z,17.80
2019-03-25T06:04:45.349Z,26.00
2019-03-25T06:07:15.065Z,31.33
2019-03-25T06:09:44.696Z,26.97
2019-03-25T06:12:14.422Z,25.73
2019-03-25T06:14:44.065Z,20.40
2019-03-25T06:17:14.966Z,22.80
2019-03-25T06:19:44.598Z,25.97
2019-03-25T06:22:14.287Z,31.53
2019-03-25T06:24:43.919Z,28.57
2019-03-25T06:27:14.628Z,26.17
2019-03-25T06:29:44.382Z,21.67
2019-03-25T06:32:14.128Z,27.13
2019-03-25T06:34:43.900Z,21.70
2019-03-25T06:37:14.731Z,24.47
2019-03-25T06:39:44.401Z,24.90
2019-03-25T06:42:14.106Z,24.87
2019-03-25T06:44:43.750Z,23.40
2019-03-25T06:47:15.240Z,18.73
2019-03-25T06:49:48.111Z,20.70
2019-03-25T06:52:21.212Z,17.63
2019-03-25T06:54:50.842Z,14.23
2019-03-25T06:57:25.609Z,17.70
2019-03-25T06:59:52.044Z,15.97
2019-03-25T07:02:23.390Z,9.50
2019-03-25T07:04:53.127Z,14.23
2019-03-25T07:07:24.012Z,10.53
2019-03-25T07:09:54.785Z,14.33
2019-03-25T07:12:30.844Z,14.57
2019-03-25T07:15:00.490Z,12.60
2019-03-25T07:17:31.384Z,14.03
2019-03-25T07:20:01.021Z,8.27
2019-03-25T07:22:30.703Z,12.07
2019-03-25T07:25:00.375Z,7.27
2019-03-25T07:27:36.679Z,13.70
2019-03-25T07:30:01.358Z,10.33
2019-03-25T07:32:31.118Z,15.87
2019-03-25T07:35:00.695Z,9.80
2019-03-25T07:37:31.788Z,10.67
2019-03-25T07:40:01.424Z,10.97
2019-03-25T07:42:30.971Z,14.23
2019-03-25T07:45:00.689Z,10.80
2019-03-25T07:47:30.312Z,10.00
2019-03-25T07:49:59.846Z,11.27
2019-03-25T07:52:29.466Z,12.53
2019-03-25T07:54:59.406Z,13.97
2019-03-25T07:57:29.029Z,10.50
2019-03-25T07:59:58.748Z,9.83
2019-03-25T08:02:28.551Z,9.63
2019-03-25T08:04:58.191Z,9.60
2019-03-25T08:07:28.037Z,9.57
2019-03-25T08:09:57.881Z,13.17
2019-03-25T08:12:27.519Z,12.30
2019-03-25T08:14:57.343Z,10.23
2019-03-25T08:17:26.993Z,10.77
2019-03-25T08:19:57.175Z,11.13
2019-03-25T08:22:26.883Z,10.67
2019-03-25T08:24:56.430Z,10.87
2019-03-25T08:27:26.173Z,9.13
2019-03-25T08:29:57.996Z,6.80
2019-03-25T08:32:27.915Z,9.67
2019-03-25T08:34:58.529Z,11.23
2019-03-25T08:37:28.668Z,10.63
2019-03-25T08:39:58.390Z,9.87
2019-03-25T08:42:27.996Z,7.93
2019-03-25T08:44:57.601Z,12.47
2019-03-25T08:47:28.723Z,9.13
2019-03-25T08:49:58.287Z,7.83
2019-03-25T08:52:27.938Z,11.37
2019-03-25T08:54:57.548Z,9.97
2019-03-25T08:57:27.159Z,16.83
2019-03-25T08:59:57.796Z,9.77
2019-03-25T09:02:28.671Z,9.53
2019-03-25T09:04:59.913Z,9.90
2019-03-25T09:07:29.496Z,11.77
2019-03-25T09:09:59.100Z,9.00
2019-03-25T09:12:28.728Z,7.33
2019-03-25T09:14:58.345Z,10.70
2019-03-25T09:17:27.975Z,7.13
2019-03-25T09:19:57.523Z,10.03
2019-03-25T09:22:27.111Z,10.47
2019-03-25T09:24:56.643Z,8.37
2019-03-25T09:27:27.863Z,8.80
2019-03-25T09:29:58.689Z,9.17
2019-03-25T09:32:28.315Z,8.60
2019-03-25T09:34:59.322Z,7.17
2019-03-25T09:37:29.071Z,7.40
2019-03-25T09:39:58.659Z,7.00
2019-03-25T09:42:28.313Z,7.57
2019-03-25T09:44:57.898Z,8.87
2019-03-25T09:47:27.603Z,5.67
2019-03-25T09:49:57.235Z,6.27
2019-03-25T09:52:37.931Z,5.80
2019-03-25T09:54:58.373Z,6.07
2019-03-25T09:57:28.058Z,7.10
2019-03-25T09:59:57.742Z,8.90
2019-03-25T10:02:27.469Z,5.57
2019-03-25T10:04:57.051Z,3.60
2019-03-25T10:07:28.388Z,5.40
2019-03-25T10:09:58.221Z,5.17
2019-03-25T10:12:30.449Z,4.70
2019-03-25T10:15:01.568Z,5.00
2019-03-25T10:17:31.191Z,6.37
2019-03-25T10:20:00.800Z,6.43
2019-03-25T10:22:30.514Z,6.67
2019-03-25T10:25:00.344Z,4.13
2019-03-25T10:27:30.105Z,7.43
2019-03-25T10:29:59.719Z,4.73
2019-03-25T10:32:29.837Z,5.53
2019-03-25T10:35:03.729Z,5.10
2019-03-25T10:37:37.141Z,3.67
2019-03-25T10:40:24.139Z,4.67
2019-03-25T10:42:53.810Z,4.13
2019-03-25T10:45:24.761Z,4.67
2019-03-25T10:47:54.517Z,6.30
2019-03-25T10:50:24.280Z,7.43
2019-03-25T10:52:53.879Z,6.37
2019-03-25T10:55:25.681Z,8.60
2019-03-25T10:57:55.682Z,2.93
2019-03-25T11:00:25.668Z,3.40
2019-03-25T11:02:56.321Z,3.10
2019-03-25T11:05:29.620Z,3.60
2019-03-25T11:07:59.288Z,2.93
2019-03-25T11:10:28.871Z,2.53
2019-03-25T11:12:58.530Z,3.97
2019-03-25T11:15:29.584Z,3.33
2019-03-25T11:17:59.180Z,3.57
2019-03-25T11:20:28.761Z,2.97
2019-03-25T11:22:58.429Z,4.73
2019-03-25T11:25:28.062Z,3.47
2019-03-25T11:27:57.657Z,5.33
2019-03-25T11:31:01.964Z,2.27
2019-03-25T11:33:31.690Z,4.30
2019-03-25T11:36:02.819Z,4.63
2019-03-25T11:38:32.733Z,6.77
2019-03-25T11:41:02.327Z,3.33
2019-03-25T11:43:33.074Z,4.50
2019-03-25T11:46:02.694Z,4.33
2019-03-25T11:48:35.094Z,2.10
2019-03-25T11:51:04.759Z,3.17
2019-03-25T11:53:35.408Z,2.97
2019-03-25T11:56:05.541Z,2.93
2019-03-25T11:58:35.123Z,4.53
2019-03-25T12:01:04.781Z,2.97
2019-03-25T12:03:36.658Z,5.87
2019-03-25T12:06:06.356Z,4.47
2019-03-25T12:08:35.994Z,1.60
2019-03-25T12:11:05.559Z,2.97
2019-03-25T12:13:35.161Z,2.43
2019-03-25T12:16:05.015Z,3.80
2019-03-25T12:18:34.594Z,6.03
2019-03-25T12:21:06.475Z,7.57
2019-03-25T12:23:37.342Z,2.07
2019-03-25T12:26:06.990Z,2.23
2019-03-25T12:28:36.628Z,3.00
2019-03-25T12:31:06.249Z,8.90
2019-03-25T12:33:35.874Z,6.27
2019-03-25T12:36:06.021Z,4.50
2019-03-25T12:38:35.741Z,2.67
2019-03-25T12:41:05.502Z,3.90
2019-03-25T12:43:35.104Z,3.90
2019-03-25T12:46:04.691Z,4.30
2019-03-25T12:48:34.362Z,4.03
2019-03-25T12:51:04.027Z,4.70
2019-03-25T12:53:33.749Z,7.23
2019-03-25T12:56:03.827Z,7.00
2019-03-25T12:58:33.564Z,9.40
2019-03-25T13:01:03.261Z,4.80
2019-03-25T13:03:33.159Z,4.90
2019-03-25T13:06:06.887Z,5.37
2019-03-25T13:08:37.481Z,6.33
2019-03-25T13:11:07.705Z,5.90
2019-03-25T13:13:40.881Z,4.70
2019-03-25T13:16:12.628Z,5.67
2019-03-25T13:18:43.205Z,2.83
2019-03-25T13:21:12.994Z,6.10
2019-03-25T13:23:45.193Z,5.70
2019-03-25T13:26:15.272Z,6.20
2019-03-25T13:28:45.450Z,4.03
2019-03-25T13:31:15.836Z,5.13
2019-03-25T13:33:45.853Z,6.03
2019-03-25T13:36:15.498Z,6.03
2019-03-25T13:38:45.193Z,2.50
2019-03-25T13:41:15.680Z,6.50
2019-03-25T13:43:45.623Z,8.47
2019-03-25T13:46:15.442Z,8.07
2019-03-25T13:48:45.177Z,4.07
2019-03-25T13:51:14.953Z,3.33
2019-03-25T13:53:48.353Z,5.70
2019-03-25T13:56:18.173Z,5.00
2019-03-25T13:58:48.469Z,7.10
2019-03-25T14:01:18.379Z,7.70
2019-03-25T14:03:50.057Z,1.77
2019-03-25T14:06:22.429Z,3.77
2019-03-25T14:08:55.841Z,6.93
2019-03-25T14:11:25.542Z,3.07
2019-03-25T14:13:55.342Z,4.80
2019-03-25T14:16:26.370Z,5.63
2019-03-25T14:18:55.986Z,2.90
2019-03-25T14:21:25.711Z,7.37
2019-03-25T14:23:55.701Z,4.07
2019-03-25T14:26:28.564Z,2.03
2019-03-25T14:28:59.495Z,4.00
2019-03-25T14:31:29.369Z,7.00
2019-03-25T14:33:59.253Z,8.33
2019-03-25T14:36:31.154Z,8.93
2019-03-25T14:39:00.994Z,1.93
2019-03-25T14:41:33.033Z,4.87
2019-03-25T14:44:02.709Z,3.13
2019-03-25T14:46:32.253Z,3.33
2019-03-25T14:49:02.123Z,1.97
2019-03-25T14:51:32.864Z,2.37
2019-03-25T14:54:02.448Z,3.33
2019-03-25T14:56:32.032Z,4.60
2019-03-25T14:59:01.740Z,2.90
2019-03-25T15:01:31.371Z,5.67
2019-03-25T15:04:00.995Z,4.70
2019-03-25T15:06:30.558Z,6.70
2019-03-25T15:09:00.129Z,3.60
2019-03-25T15:11:29.753Z,3.43
2019-03-25T15:13:59.303Z,3.67
2019-03-25T15:16:28.896Z,4.70
2019-03-25T15:18:58.439Z,6.20
2019-03-25T15:21:28.006Z,7.10
2019-03-25T15:23:57.538Z,8.33
2019-03-25T15:26:27.124Z,3.00
2019-03-25T15:28:57.186Z,7.07
2019-03-25T15:31:26.735Z,5.80
2019-03-25T15:33:56.348Z,4.53
2019-03-25T15:36:26.480Z,5.03
2019-03-25T15:38:56.346Z,6.83
2019-03-25T15:41:25.979Z,6.10
2019-03-25T15:43:55.590Z,4.97
2019-03-25T15:46:25.170Z,8.27
2019-03-25T15:48:54.768Z,5.27
2019-03-25T15:51:24.405Z,6.60
2019-03-25T15:53:54.509Z,6.60
2019-03-25T15:56:24.140Z,5.33
2019-03-25T15:58:56.252Z,4.20
2019-03-25T16:01:26.039Z,8.00
2019-03-25T16:03:55.887Z,2.80
2019-03-25T16:06:27.203Z,7.97
2019-03-25T16:08:56.796Z,4.73
2019-03-25T16:11:26.721Z,6.33
2019-03-25T16:13:56.307Z,8.67
2019-03-25T16:16:26.279Z,4.73
2019-03-25T16:18:55.931Z,4.97
2019-03-25T16:21:26.204Z,7.00
2019-03-25T16:23:56.208Z,5.90
2019-03-25T16:26:26.229Z,5.30
2019-03-25T16:28:56.065Z,5.43
2019-03-25T16:31:28.240Z,7.43
2019-03-25T16:33:57.893Z,8.00
2019-03-25T16:36:29.095Z,5.20
2019-03-25T16:38:58.677Z,7.70
2019-03-25T16:41:28.537Z,5.20
2019-03-25T16:43:58.145Z,5.50
2019-03-25T16:46:30.970Z,4.60
2019-03-25T16:49:00.577Z,6.53
2019-03-25T16:51:30.201Z,6.57
2019-03-25T16:54:00.636Z,5.60
2019-03-25T16:56:31.853Z,6.17
2019-03-25T16:59:01.492Z,2.67
2019-03-25T17:01:31.448Z,3.53
2019-03-25T17:04:01.066Z,6.60
2019-03-25T17:06:31.871Z,3.93
2019-03-25T17:09:01.496Z,4.20
2019-03-25T17:11:31.327Z,4.57
2019-03-25T17:14:00.938Z,4.93
2019-03-25T17:16:30.546Z,6.63
2019-03-25T17:19:02.092Z,1.80
2019-03-25T17:21:31.541Z,3.23
2019-03-25T17:24:01.225Z,5.30
2019-03-25T17:26:41.929Z,3.17
2019-03-25T17:29:03.476Z,7.20
2019-03-25T17:31:33.071Z,3.40
2019-03-25T17:34:02.645Z,4.37
2019-03-25T17:36:33.478Z,1.90
2019-03-25T17:39:03.161Z,2.60
2019-03-25T17:41:32.890Z,35.53
2019-03-25T17:44:04.340Z,4.57
2019-03-25T17:46:35.553Z,3.00
2019-03-25T17:49:05.859Z,5.23
2019-03-25T17:51:35.470Z,2.97
2019-03-25T17:54:05.287Z,7.00
2019-03-25T17:56:35.946Z,7.30
2019-03-25T17:59:05.509Z,5.57
2019-03-25T18:01:36.129Z,8.23
2019-03-25T18:04:05.994Z,3.37
2019-03-25T18:06:37.137Z,6.87
2019-03-25T18:09:09.386Z,6.37
2019-03-25T18:12:00.444Z,6.30
2019-03-25T18:14:31.364Z,4.57
2019-03-25T18:17:01.032Z,8.87
2019-03-25T18:19:30.693Z,5.03
2019-03-25T18:22:01.913Z,6.47
2019-03-25T18:24:31.541Z,6.20
2019-03-25T18:27:01.151Z,3.57
2019-03-25T18:29:30.714Z,5.93
2019-03-25T18:32:00.418Z,7.53
2019-03-25T18:34:30.033Z,2.73
2019-03-25T18:36:59.886Z,2.00
2019-03-25T18:39:29.501Z,3.37
2019-03-25T18:41:59.119Z,3.47
2019-03-25T18:44:28.768Z,6.93
2019-03-25T18:46:58.649Z,5.20
2019-03-25T18:49:28.762Z,7.67
2019-03-25T18:51:58.387Z,5.20
2019-03-25T18:54:28.247Z,3.80
2019-03-25T18:56:57.935Z,10.73
2019-03-25T18:59:27.584Z,7.53
2019-03-25T19:01:59.017Z,4.83
2019-03-25T19:04:31.250Z,5.07
2019-03-25T19:07:02.416Z,8.87
2019-03-25T19:09:32.248Z,7.57
2019-03-25T19:12:02.405Z,4.37
2019-03-25T19:14:31.964Z,5.37
2019-03-25T19:17:05.343Z,4.13
2019-03-25T19:19:35.305Z,5.63
2019-03-25T19:22:05.588Z,5.60
2019-03-25T19:24:35.351Z,7.87
2019-03-25T19:27:07.746Z,5.63
2019-03-25T19:29:37.541Z,7.57
2019-03-25T19:32:07.293Z,7.87
2019-03-25T19:34:36.994Z,4.80
2019-03-25T19:37:07.711Z,7.53
2019-03-25T19:39:38.627Z,7.60
2019-03-25T19:42:08.789Z,9.00
2019-03-25T19:44:38.634Z,4.27
2019-03-25T19:47:09.814Z,5.17
2019-03-25T19:49:39.394Z,3.30
2019-03-25T19:52:09.590Z,3.57
2019-03-25T19:54:39.311Z,5.70
2019-03-25T19:57:09.208Z,4.30
2019-03-25T19:59:38.908Z,5.03
2019-03-25T20:02:18.513Z,5.13
2019-03-25T20:04:39.859Z,4.70
2019-03-25T20:07:10.574Z,3.10
2019-03-25T20:09:42.515Z,4.47
2019-03-25T20:12:26.041Z,6.57
2019-03-25T20:14:56.825Z,9.07
2019-03-25T20:17:27.999Z,38.43
2019-03-25T20:19:57.999Z,8.90
2019-03-25T20:22:28.187Z,7.00
2019-03-25T20:24:58.429Z,6.97
2019-03-25T20:27:48.881Z,7.17
2019-03-25T20:30:18.584Z,6.07
2019-03-25T20:32:48.194Z,8.60
2019-03-25T20:35:17.783Z,6.60
2019-03-25T20:37:49.080Z,4.53
2019-03-25T20:40:18.780Z,6.20
2019-03-25T20:42:48.944Z,2.93
2019-03-25T20:45:19.012Z,6.43
2019-03-25T20:47:50.112Z,7.27
2019-03-25T20:50:19.734Z,7.57
2019-03-25T20:52:51.150Z,5.70
2019-03-25T20:55:20.702Z,4.57
2019-03-25T20:57:51.597Z,3.20
2019-03-25T21:00:37.959Z,4.73
2019-03-25T21:03:07.564Z,4.53
2019-03-25T21:05:37.151Z,4.27
2019-03-25T21:08:07.157Z,2.80
2019-03-25T21:10:36.741Z,4.90
2019-03-25T21:13:06.382Z,5.77
2019-03-25T21:15:35.892Z,4.90
2019-03-25T21:18:05.506Z,4.27
2019-03-25T21:20:35.130Z,5.67
2019-03-25T21:23:04.762Z,6.63
2019-03-25T21:25:34.701Z,6.23
2019-03-25T21:28:04.312Z,7.63
2019-03-25T21:30:47.027Z,7.30
2019-03-25T21:33:05.579Z,7.50
2019-03-25T21:35:35.164Z,8.93
2019-03-25T21:38:06.218Z,8.43
2019-03-25T21:40:35.876Z,5.37
2019-03-25T21:43:05.645Z,9.10
2019-03-25T21:45:35.204Z,11.53
2019-03-25T21:48:05.002Z,7.80
2019-03-25T21:50:34.696Z,11.40
2019-03-25T21:53:04.355Z,6.60
2019-03-25T21:55:34.152Z,8.17
2019-03-25T21:58:04.177Z,8.53
2019-03-25T22:00:33.822Z,7.13
2019-03-25T22:03:11.418Z,6.20
2019-03-25T22:05:34.700Z,8.43
2019-03-25T22:08:05.807Z,6.70
2019-03-25T22:10:35.421Z,7.60
2019-03-25T22:13:05.036Z,9.37
2019-03-25T22:15:34.638Z,7.87
2019-03-25T22:18:04.618Z,17.20
2019-03-25T22:20:34.279Z,7.77
2019-03-25T22:23:03.956Z,8.23
2019-03-25T22:25:33.538Z,8.60
2019-03-25T22:28:03.126Z,8.47
2019-03-25T22:30:32.736Z,10.03
2019-03-25T22:33:02.320Z,15.30
2019-03-25T22:35:31.903Z,10.97
2019-03-25T22:38:01.553Z,13.83
2019-03-25T22:40:31.142Z,13.90
2019-03-25T22:43:02.210Z,13.90
2019-03-25T22:45:32.306Z,13.87
2019-03-25T22:48:03.214Z,15.00
2019-03-25T22:50:33.246Z,15.33
2019-03-25T22:53:04.516Z,12.93
2019-03-25T22:55:34.155Z,14.07
2019-03-25T22:58:04.954Z,14.10
2019-03-25T23:00:47.652Z,13.43
2019-03-25T23:03:17.468Z,12.77
2019-03-25T23:05:47.369Z,11.23
2019-03-25T23:08:17.341Z,11.43
2019-03-25T23:10:47.032Z,16.17
2019-03-25T23:13:16.738Z,11.47
2019-03-25T23:15:46.286Z,13.07
2019-03-25T23:18:16.003Z,11.30
2019-03-25T23:20:45.696Z,10.00
2019-03-25T23:23:15.303Z,10.10
2019-03-25T23:25:44.888Z,13.90
2019-03-25T23:28:14.527Z,9.97
2019-03-25T23:30:44.126Z,6.43
2019-03-25T23:33:15.812Z,11.60
2019-03-25T23:35:45.384Z,8.20
2019-03-25T23:38:16.262Z,6.13
2019-03-25T23:40:45.935Z,8.77
2019-03-25T23:43:15.559Z,7.73
2019-03-25T23:45:45.376Z,6.87
2019-03-25T23:48:15.123Z,9.83
2019-03-25T23:50:44.787Z,5.63
2019-03-25T23:53:14.413Z,7.63
2019-03-25T23:55:44.009Z,5.27
2019-03-25T23:58:13.621Z,4.87
